createdAt,value
2018-02-21T00:02:14.700Z,79.90
2018-02-21T00:04:43.113Z,79.90
2018-02-21T00:07:11.516Z,80.20
2018-02-21T00:09:39.915Z,80.90
2018-02-21T00:12:08.343Z,81.20
2018-02-21T00:14:36.747Z,82.00
2018-02-21T00:17:05.166Z,82.50
2018-02-21T00:19:33.587Z,82.50
2018-02-21T00:22:01.985Z,82.10
2018-02-21T00:24:30.396Z,81.90
2018-02-21T00:26:58.790Z,82.10
2018-02-21T00:29:27.186Z,82.50
2018-02-21T00:31:56.362Z,82.10
2018-02-21T00:34:24.783Z,82.10
2018-02-21T00:36:53.172Z,82.70
2018-02-21T00:39:21.600Z,83.50
2018-02-21T00:41:50.759Z,83.00
2018-02-21T00:44:19.165Z,82.90
2018-02-21T00:46:47.579Z,82.20
2018-02-21T00:49:15.976Z,81.90
2018-02-21T00:51:44.394Z,81.60
2018-02-21T00:54:12.809Z,81.50
2018-02-21T00:56:42.027Z,82.20
2018-02-21T00:59:10.496Z,82.70
2018-02-21T01:01:39.049Z,82.40
2018-02-21T01:04:08.233Z,82.10
2018-02-21T01:06:36.642Z,82.10
2018-02-21T01:09:04.396Z,82.80
2018-02-21T01:11:33.635Z,83.50
2018-02-21T01:14:02.027Z,83.50
2018-02-21T01:16:30.427Z,82.90
2018-02-21T01:18:59.621Z,82.60
2018-02-21T01:21:28.020Z,82.50
2018-02-21T01:23:57.194Z,82.80
2018-02-21T01:26:25.602Z,82.90
2018-02-21T01:28:54.028Z,82.70
2018-02-21T01:31:22.428Z,83.20
2018-02-21T01:33:50.829Z,83.20
2018-02-21T01:36:20.021Z,84.30
2018-02-21T01:38:49.206Z,83.00
2018-02-21T01:41:18.380Z,82.70
2018-02-21T01:43:47.566Z,81.60
2018-02-21T01:46:15.974Z,81.70
2018-02-21T01:48:44.809Z,81.20
2018-02-21T01:51:13.244Z,81.20
2018-02-21T01:53:42.412Z,80.70
2018-02-21T01:56:10.853Z,80.60
2018-02-21T01:58:39.262Z,80.90
2018-02-21T02:01:07.666Z,80.90
2018-02-21T02:03:36.869Z,81.00
2018-02-21T02:06:07.080Z,81.30
2018-02-21T02:08:35.748Z,81.30
2018-02-21T02:11:04.162Z,82.00
2018-02-21T02:13:33.007Z,81.60
2018-02-21T02:16:01.407Z,81.60
2018-02-21T02:18:29.811Z,81.50
2018-02-21T02:20:58.642Z,81.40
2018-02-21T02:23:27.044Z,81.40
2018-02-21T02:25:55.450Z,81.50
2018-02-21T02:28:24.637Z,81.90
2018-02-21T02:30:53.466Z,82.20
2018-02-21T02:33:21.876Z,82.20
2018-02-21T02:35:50.280Z,81.90
2018-02-21T02:38:39.579Z,81.50
2018-02-21T02:41:07.687Z,82.20
2018-02-21T02:43:36.222Z,83.00
2018-02-21T02:46:04.712Z,81.90
2018-02-21T02:48:33.201Z,82.30
2018-02-21T02:51:01.694Z,83.50
2018-02-21T02:53:30.209Z,83.90
2018-02-21T02:55:58.705Z,83.80
2018-02-21T02:58:27.965Z,84.50
2018-02-21T03:00:56.456Z,85.50
2018-02-21T03:03:24.956Z,84.60
2018-02-21T03:05:53.433Z,85.20
2018-02-21T03:08:22.663Z,85.00
2018-02-21T03:10:51.945Z,84.40
2018-02-21T03:13:20.433Z,85.20
2018-02-21T03:15:49.738Z,85.10
2018-02-21T03:18:18.226Z,85.10
2018-02-21T03:20:47.531Z,83.90
2018-02-21T03:23:16.010Z,84.40
2018-02-21T03:25:44.681Z,84.80
2018-02-21T03:28:13.968Z,83.40
2018-02-21T03:30:42.492Z,83.80
2018-02-21T03:33:10.928Z,83.10
2018-02-21T03:35:40.196Z,81.30
2018-02-21T03:38:08.701Z,82.10
2018-02-21T03:40:37.180Z,82.50
2018-02-21T03:43:05.687Z,83.40
2018-02-21T03:45:34.145Z,83.40
2018-02-21T03:48:02.619Z,83.50
2018-02-21T03:50:31.114Z,83.90
2018-02-21T03:52:59.822Z,83.50
2018-02-21T03:55:32.944Z,83.30
2018-02-21T03:58:01.454Z,83.20
2018-02-21T04:00:30.710Z,84.10
2018-02-21T04:02:59.861Z,84.00
2018-02-21T04:05:29.075Z,83.70
2018-02-21T04:07:58.365Z,84.40
2018-02-21T04:10:26.854Z,84.40
2018-02-21T04:12:55.427Z,84.10
2018-02-21T04:15:24.652Z,82.50
2018-02-21T04:17:53.099Z,83.30
2018-02-21T04:20:21.585Z,82.60
2018-02-21T04:22:50.065Z,82.20
2018-02-21T04:25:18.360Z,82.10
2018-02-21T04:27:47.589Z,82.70
2018-02-21T04:30:16.856Z,82.60
2018-02-21T04:32:45.277Z,83.20
2018-02-21T04:35:13.748Z,83.30
2018-02-21T04:37:42.262Z,83.50
2018-02-21T04:40:10.553Z,84.10
2018-02-21T04:42:39.038Z,83.90
2018-02-21T04:45:08.278Z,83.10
2018-02-21T04:47:36.772Z,83.70
2018-02-21T04:50:05.261Z,83.20
2018-02-21T04:52:35.228Z,82.30
2018-02-21T04:55:09.094Z,82.90
2018-02-21T04:57:57.178Z,82.80
2018-02-21T05:00:25.456Z,83.30
2018-02-21T05:02:53.936Z,83.60
2018-02-21T05:05:23.164Z,83.10
2018-02-21T05:07:51.657Z,83.60
2018-02-21T05:10:20.890Z,81.90
2018-02-21T05:12:49.889Z,82.40
2018-02-21T05:15:22.364Z,81.60
2018-02-21T05:17:50.854Z,82.40
2018-02-21T05:20:19.328Z,83.00
2018-02-21T05:22:48.394Z,82.70
2018-02-21T05:25:16.911Z,83.00
2018-02-21T05:33:00.779Z,83.90
2018-02-21T05:38:52.579Z,83.20
2018-02-21T05:41:20.996Z,83.30
2018-02-21T05:43:50.119Z,83.10
2018-02-21T05:46:19.304Z,83.50
2018-02-21T05:48:48.950Z,83.80
2018-02-21T05:51:18.076Z,83.80
2018-02-21T05:53:46.491Z,83.50
2018-02-21T05:56:15.656Z,83.10
2018-02-21T05:58:44.092Z,83.00
2018-02-21T06:01:12.317Z,83.30
2018-02-21T06:03:40.727Z,83.30
2018-02-21T06:06:08.822Z,83.30
2018-02-21T06:08:37.244Z,83.10
2018-02-21T06:11:05.645Z,81.70
2018-02-21T06:13:34.845Z,81.30
2018-02-21T06:16:03.684Z,82.10
2018-02-21T06:18:32.138Z,82.20
2018-02-21T06:21:00.694Z,81.60
2018-02-21T06:23:29.875Z,81.00
2018-02-21T06:25:59.066Z,81.80
2018-02-21T06:28:27.464Z,81.80
2018-02-21T06:30:56.645Z,82.50
2018-02-21T06:33:25.839Z,82.50
2018-02-21T06:35:55.024Z,82.10
2018-02-21T06:38:23.460Z,82.10
2018-02-21T06:40:51.856Z,81.10
2018-02-21T06:43:21.231Z,80.60
2018-02-21T06:45:49.855Z,80.30
2018-02-21T06:48:19.225Z,79.70
2018-02-21T06:50:47.781Z,79.50
2018-02-21T06:53:16.179Z,79.60
2018-02-21T06:55:44.609Z,79.40
2018-02-21T06:58:13.057Z,79.60
2018-02-21T07:00:42.398Z,81.50
2018-02-21T07:03:11.574Z,81.70
2018-02-21T07:05:39.993Z,81.70
2018-02-21T07:08:08.417Z,81.50
2018-02-21T07:10:36.822Z,81.40
2018-02-21T07:13:05.244Z,80.70
2018-02-21T07:15:33.714Z,80.00
2018-02-21T07:18:02.252Z,79.50
2018-02-21T07:20:30.656Z,79.80
2018-02-21T07:22:59.087Z,79.90
2018-02-21T07:25:27.497Z,80.00
2018-02-21T07:27:56.650Z,81.80
2018-02-21T07:30:25.055Z,81.80
2018-02-21T07:32:53.472Z,81.50
2018-02-21T07:35:21.888Z,81.00
2018-02-21T07:37:51.163Z,81.00
2018-02-21T07:40:20.236Z,81.10
2018-02-21T07:42:49.112Z,80.60
2018-02-21T07:45:19.274Z,78.90
2018-02-21T07:47:47.361Z,78.80
2018-02-21T07:50:17.071Z,79.60
2018-02-21T07:52:45.494Z,79.60
2018-02-21T07:55:14.659Z,79.40
2018-02-21T07:57:42.900Z,79.50
2018-02-21T08:00:11.309Z,80.20
2018-02-21T08:02:39.736Z,80.20
2018-02-21T08:05:08.158Z,80.00
2018-02-21T08:07:36.564Z,80.10
2018-02-21T08:10:05.751Z,80.20
2018-02-21T08:12:34.156Z,80.90
2018-02-21T08:15:02.573Z,81.10
2018-02-21T08:17:30.980Z,80.20
2018-02-21T08:19:59.416Z,79.80
2018-02-21T08:22:27.810Z,80.00
2018-02-21T08:24:56.209Z,80.30
2018-02-21T08:27:24.649Z,80.20
2018-02-21T08:29:53.062Z,79.70
2018-02-21T08:32:21.454Z,79.30
2018-02-21T08:34:50.105Z,79.00
2018-02-21T08:37:18.504Z,79.60
2018-02-21T08:39:46.916Z,79.90
2018-02-21T08:42:16.281Z,79.00
2018-02-21T08:44:44.697Z,79.00
2018-02-21T08:47:13.117Z,79.20
2018-02-21T08:49:41.512Z,79.40
2018-02-21T08:52:09.927Z,79.30
2018-02-21T08:54:38.349Z,79.60
2018-02-21T08:57:06.742Z,79.90
2018-02-21T08:59:35.188Z,79.40
2018-02-21T09:02:03.592Z,79.50
2018-02-21T09:04:31.996Z,80.00
2018-02-21T09:07:01.176Z,80.00
2018-02-21T09:09:29.401Z,80.00
2018-02-21T09:11:58.150Z,79.90
2018-02-21T09:14:27.308Z,79.90
2018-02-21T09:16:55.747Z,79.80
2018-02-21T09:19:24.159Z,80.10
2018-02-21T09:21:52.571Z,79.80
2018-02-21T09:24:21.172Z,79.50
2018-02-21T09:26:50.341Z,79.70
2018-02-21T09:29:18.781Z,79.60
2018-02-21T09:31:47.200Z,78.60
2018-02-21T09:34:16.987Z,79.40
2018-02-21T09:36:45.404Z,79.30
2018-02-21T09:39:14.565Z,80.40
2018-02-21T09:41:42.981Z,80.40
2018-02-21T09:44:12.158Z,79.40
2018-02-21T09:46:40.552Z,79.30
2018-02-21T09:49:09.735Z,80.10
2018-02-21T09:51:38.141Z,80.20
2018-02-21T09:54:06.540Z,80.10
2018-02-21T09:56:34.961Z,80.30
2018-02-21T09:59:03.363Z,80.10
2018-02-21T10:01:32.578Z,78.40
2018-02-21T10:04:00.995Z,78.30
2018-02-21T10:06:29.399Z,79.30
2018-02-21T10:08:58.579Z,78.50
2018-02-21T10:11:26.980Z,77.80
2018-02-21T10:13:56.153Z,77.50
2018-02-21T10:16:24.583Z,77.50
2018-02-21T10:18:53.011Z,79.70
2018-02-21T10:21:21.402Z,78.90
2018-02-21T10:23:51.008Z,80.20
2018-02-21T10:26:20.196Z,79.40
2018-02-21T10:28:48.626Z,79.30
2018-02-21T10:31:17.023Z,79.50
2018-02-21T10:33:45.428Z,77.70
2018-02-21T10:36:13.832Z,75.90
2018-02-21T10:38:43.001Z,77.00
2018-02-21T10:41:11.396Z,77.00
2018-02-21T10:43:40.567Z,80.60
2018-02-21T10:46:08.970Z,78.10
2018-02-21T10:48:38.141Z,76.70
2018-02-21T10:51:06.558Z,76.80
2018-02-21T10:53:34.977Z,80.00
2018-02-21T10:56:03.384Z,78.40
2018-02-21T10:58:31.801Z,78.50
2018-02-21T11:01:05.642Z,78.80
2018-02-21T11:03:34.069Z,79.60
2018-02-21T11:06:02.498Z,78.80
2018-02-21T11:08:30.911Z,77.20
2018-02-21T11:11:00.090Z,76.70
2018-02-21T11:13:28.496Z,76.60
2018-02-21T11:15:57.656Z,76.40
2018-02-21T11:18:26.083Z,76.40
2018-02-21T11:20:54.484Z,76.50
2018-02-21T11:23:22.896Z,78.20
2018-02-21T11:25:51.301Z,76.90
2018-02-21T11:28:20.484Z,77.10
2018-02-21T11:30:49.377Z,77.10
2018-02-21T11:33:19.196Z,76.40
2018-02-21T11:35:48.430Z,75.60
2018-02-21T11:38:16.840Z,75.50
2018-02-21T11:40:45.232Z,77.10
2018-02-21T11:43:13.659Z,76.20
2018-02-21T11:45:42.056Z,77.10
2018-02-21T11:48:10.480Z,75.60
2018-02-21T11:50:39.647Z,77.50
2018-02-21T11:53:08.039Z,77.60
2018-02-21T11:55:36.469Z,76.50
2018-02-21T11:58:04.869Z,77.60
2018-02-21T12:00:33.294Z,74.80
2018-02-21T12:03:02.455Z,76.20
2018-02-21T12:05:30.868Z,76.30
2018-02-21T12:08:00.043Z,75.50
2018-02-21T12:10:28.467Z,75.50
2018-02-21T12:12:56.885Z,75.90
2018-02-21T12:15:25.296Z,75.70
2018-02-21T12:17:54.474Z,74.90
2018-02-21T12:20:22.886Z,74.80
2018-02-21T12:22:52.368Z,75.40
2018-02-21T12:25:21.539Z,75.40
2018-02-21T12:27:50.346Z,75.40
2018-02-21T12:30:20.135Z,74.80
2018-02-21T12:32:51.970Z,74.70
2018-02-21T12:35:21.107Z,75.60
2018-02-21T12:37:50.860Z,77.00
2018-02-21T12:40:26.438Z,76.60
2018-02-21T12:42:54.813Z,76.60
2018-02-21T12:45:23.220Z,75.40
2018-02-21T12:47:52.395Z,74.40
2018-02-21T12:50:21.741Z,74.40
2018-02-21T12:52:50.343Z,74.10
2018-02-21T12:55:18.919Z,74.10
2018-02-21T12:57:47.353Z,73.60
2018-02-21T13:00:16.336Z,73.30
2018-02-21T13:02:44.730Z,73.30
2018-02-21T13:05:13.926Z,71.80
2018-02-21T13:07:43.106Z,72.40
2018-02-21T13:10:12.320Z,73.20
2018-02-21T13:12:42.398Z,71.40
2018-02-21T13:15:10.797Z,71.40
2018-02-21T13:17:39.195Z,72.70
2018-02-21T13:20:08.387Z,74.10
2018-02-21T13:22:38.552Z,73.60
2018-02-21T13:25:06.948Z,73.60
2018-02-21T13:27:35.381Z,74.20
2018-02-21T13:30:03.777Z,74.30
2018-02-21T13:32:32.167Z,73.90
2018-02-21T13:35:00.576Z,74.50
2018-02-21T13:37:29.003Z,73.20
2018-02-21T13:39:57.401Z,73.40
2018-02-21T13:42:25.796Z,72.60
2018-02-21T13:44:54.216Z,72.10
2018-02-21T13:47:23.376Z,70.80
2018-02-21T13:49:52.735Z,70.90
2018-02-21T13:52:21.395Z,72.10
2018-02-21T13:54:50.950Z,70.90
2018-02-21T13:57:20.004Z,71.00
2018-02-21T13:59:48.399Z,70.50
2018-02-21T14:02:16.794Z,65.70
2018-02-21T14:04:45.190Z,67.80
2018-02-21T14:07:13.608Z,67.20
2018-02-21T14:09:42.010Z,68.30
2018-02-21T14:12:10.429Z,68.50
2018-02-21T14:14:38.810Z,66.80
2018-02-21T14:17:07.219Z,68.30
2018-02-21T14:19:35.634Z,68.70
2018-02-21T14:22:04.025Z,66.90
2018-02-21T14:24:33.204Z,66.10
2018-02-21T14:27:01.601Z,66.10
2018-02-21T14:29:29.853Z,67.20
2018-02-21T14:31:58.248Z,68.40
2018-02-21T14:34:26.635Z,69.50
2018-02-21T14:36:55.046Z,67.20
2018-02-21T14:39:24.249Z,66.90
2018-02-21T14:41:52.311Z,66.90
2018-02-21T14:44:22.008Z,68.30
2018-02-21T14:46:51.261Z,68.20
2018-02-21T14:49:20.134Z,68.10
2018-02-21T14:51:48.531Z,68.80
2018-02-21T14:54:16.926Z,69.20
2018-02-21T14:56:45.329Z,68.90
2018-02-21T14:59:14.501Z,67.80
2018-02-21T15:01:42.904Z,67.80
2018-02-21T15:04:12.075Z,68.60
2018-02-21T15:06:40.463Z,68.60
2018-02-21T15:09:08.862Z,68.50
2018-02-21T15:11:38.016Z,66.80
2018-02-21T15:14:06.449Z,67.50
2018-02-21T15:16:34.854Z,66.20
2018-02-21T15:19:03.266Z,63.90
2018-02-21T15:21:31.677Z,65.40
2018-02-21T15:23:59.745Z,63.70
2018-02-21T15:26:28.928Z,62.10
2018-02-21T15:28:58.094Z,62.30
2018-02-21T15:31:26.499Z,62.10
2018-02-21T15:33:55.673Z,66.60
2018-02-21T15:36:24.089Z,66.50
2018-02-21T15:38:52.519Z,66.70
2018-02-21T15:41:21.658Z,67.90
2018-02-21T15:43:49.863Z,66.60
2018-02-21T15:46:18.259Z,67.50
2018-02-21T15:48:46.673Z,66.80
2018-02-21T15:51:15.848Z,66.80
2018-02-21T15:53:44.258Z,66.80
2018-02-21T15:56:13.412Z,68.20
2018-02-21T15:58:41.828Z,68.20
2018-02-21T16:01:11.027Z,65.30
2018-02-21T16:03:40.203Z,65.30
2018-02-21T16:06:08.623Z,65.00
2018-02-21T16:08:37.031Z,68.70
2018-02-21T16:11:05.423Z,69.80
2018-02-21T16:13:33.828Z,67.30
2018-02-21T16:16:02.989Z,67.30
2018-02-21T16:18:31.416Z,67.30
2018-02-21T16:21:00.020Z,68.40
2018-02-21T16:23:28.560Z,69.30
2018-02-21T16:25:57.747Z,70.80
2018-02-21T16:28:26.126Z,70.80
2018-02-21T16:30:54.532Z,70.50
2018-02-21T16:33:22.925Z,70.40
2018-02-21T16:35:51.330Z,71.10
2018-02-21T16:38:20.827Z,70.50
2018-02-21T16:40:49.231Z,71.10
2018-02-21T16:43:17.639Z,69.50
2018-02-21T16:45:46.815Z,71.10
2018-02-21T16:48:15.208Z,71.10
2018-02-21T16:50:44.377Z,70.90
2018-02-21T16:53:12.799Z,70.70
2018-02-21T16:55:41.201Z,70.90
2018-02-21T16:58:09.623Z,70.70
2018-02-21T17:00:38.055Z,71.40
2018-02-21T17:03:07.433Z,71.40
2018-02-21T17:05:36.717Z,71.70
2018-02-21T17:08:05.913Z,71.60
2018-02-21T17:10:35.079Z,71.50
2018-02-21T17:13:03.470Z,71.60
2018-02-21T17:15:31.941Z,70.60
2018-02-21T17:18:01.114Z,72.70
2018-02-21T17:20:29.717Z,72.00
2018-02-21T17:22:58.150Z,71.60
2018-02-21T17:25:26.562Z,71.00
2018-02-21T17:27:54.997Z,70.90
2018-02-21T17:30:24.184Z,70.10
2018-02-21T17:32:52.599Z,70.10
2018-02-21T17:35:21.821Z,70.30
2018-02-21T17:37:50.270Z,69.90
2018-02-21T17:40:18.670Z,70.40
2018-02-21T17:42:47.086Z,70.20
2018-02-21T17:45:16.270Z,71.10
2018-02-21T17:47:45.449Z,69.10
2018-02-21T17:50:13.901Z,69.00
2018-02-21T17:52:42.305Z,69.70
2018-02-21T17:55:10.708Z,70.50
2018-02-21T17:57:39.897Z,70.80
2018-02-21T18:00:09.090Z,70.50
2018-02-21T18:02:38.266Z,71.10
2018-02-21T18:05:06.671Z,71.10
2018-02-21T18:07:35.857Z,71.20
2018-02-21T18:10:04.692Z,71.60
2018-02-21T18:12:33.116Z,71.60
2018-02-21T18:15:01.513Z,71.50
2018-02-21T18:17:30.674Z,70.40
2018-02-21T18:19:59.102Z,70.30
2018-02-21T18:22:27.505Z,70.90
2018-02-21T18:24:55.928Z,69.50
2018-02-21T18:27:24.319Z,70.70
2018-02-21T18:29:53.571Z,70.60
2018-02-21T18:32:22.872Z,69.20
2018-02-21T18:34:51.428Z,69.20
2018-02-21T18:37:20.058Z,69.70
2018-02-21T18:39:47.931Z,69.50
2018-02-21T18:42:16.344Z,69.70
2018-02-21T18:44:44.748Z,70.80
2018-02-21T18:47:13.159Z,70.50
2018-02-21T18:49:41.568Z,70.20
2018-02-21T18:52:09.980Z,70.00
2018-02-21T18:54:38.380Z,70.20
2018-02-21T18:57:06.807Z,70.20
2018-02-21T18:59:35.222Z,71.40
2018-02-21T19:02:03.625Z,70.00
2018-02-21T19:04:32.059Z,69.80
2018-02-21T19:07:00.461Z,70.30
2018-02-21T19:09:28.859Z,70.80
2018-02-21T19:11:57.287Z,70.70
2018-02-21T19:14:25.696Z,70.30
2018-02-21T19:16:54.095Z,71.00
2018-02-21T19:19:22.536Z,71.20
2018-02-21T19:21:50.936Z,70.60
2018-02-21T19:24:19.370Z,69.70
2018-02-21T19:26:47.791Z,71.90
2018-02-21T19:29:16.205Z,71.10
2018-02-21T19:31:45.384Z,70.40
2018-02-21T19:34:14.566Z,71.90
2018-02-21T19:36:42.974Z,72.50
2018-02-21T19:39:12.148Z,70.60
2018-02-21T19:41:40.567Z,70.60
2018-02-21T19:44:08.976Z,70.20
2018-02-21T19:46:37.385Z,70.40
2018-02-21T19:49:05.786Z,70.90
2018-02-21T19:51:34.958Z,68.80
2018-02-21T19:54:03.386Z,68.80
2018-02-21T19:56:31.789Z,69.80
2018-02-21T19:59:00.240Z,70.40
2018-02-21T20:01:28.646Z,70.60
2018-02-21T20:03:57.051Z,71.00
2018-02-21T20:06:25.471Z,70.70
2018-02-21T20:08:53.867Z,70.60
2018-02-21T20:11:22.288Z,71.30
2018-02-21T20:13:51.470Z,71.10
2018-02-21T20:16:20.071Z,71.10
2018-02-21T20:18:49.411Z,71.20
2018-02-21T20:21:17.820Z,71.30
2018-02-21T20:23:46.234Z,70.60
2018-02-21T20:26:15.406Z,71.80
2018-02-21T20:28:43.812Z,71.90
2018-02-21T20:31:12.979Z,70.70
2018-02-21T20:33:41.409Z,70.70
2018-02-21T20:36:09.807Z,72.70
2018-02-21T20:38:38.221Z,72.10
2018-02-21T20:41:06.614Z,71.50
2018-02-21T20:43:35.058Z,71.20
2018-02-21T20:46:03.620Z,71.40
2018-02-21T20:48:32.013Z,72.60
2018-02-21T20:51:00.432Z,72.20
2018-02-21T20:53:29.614Z,72.20
2018-02-21T20:55:58.052Z,72.00
2018-02-21T20:58:26.446Z,72.40
2018-02-21T21:00:54.854Z,72.20
2018-02-21T21:03:23.280Z,72.90
2018-02-21T21:05:51.675Z,73.10
2018-02-21T21:08:20.103Z,72.60
2018-02-21T21:10:49.101Z,72.50
2018-02-21T21:13:18.260Z,72.40
2018-02-21T21:15:46.705Z,72.40
2018-02-21T21:18:16.047Z,72.20
2018-02-21T21:20:44.455Z,72.20
2018-02-21T21:23:13.637Z,71.60
2018-02-21T21:25:43.610Z,72.10
2018-02-21T21:28:12.006Z,71.40
2018-02-21T21:30:40.463Z,72.20
2018-02-21T21:33:08.869Z,71.60
2018-02-21T21:35:36.947Z,71.50
2018-02-21T21:38:05.353Z,71.50
2018-02-21T21:40:33.780Z,71.30
2018-02-21T21:43:02.181Z,71.20
2018-02-21T21:45:30.588Z,71.40
2018-02-21T21:47:59.002Z,70.00
2018-02-21T21:50:27.406Z,70.70
2018-02-21T21:52:55.829Z,72.30
2018-02-21T21:55:24.231Z,71.10
2018-02-21T21:57:52.642Z,70.60
2018-02-21T22:00:21.058Z,70.30
2018-02-21T22:02:49.477Z,70.20
2018-02-21T22:05:17.920Z,69.90
2018-02-21T22:07:46.333Z,69.80
2018-02-21T22:10:14.727Z,69.20
2018-02-21T22:12:44.144Z,69.50
2018-02-21T22:15:13.353Z,69.90
2018-02-21T22:17:43.291Z,69.50
2018-02-21T22:20:12.653Z,69.50
2018-02-21T22:22:41.356Z,69.50
2018-02-21T22:25:10.516Z,68.60
2018-02-21T22:27:38.258Z,68.60
2018-02-21T22:30:06.667Z,68.50
2018-02-21T22:32:35.079Z,69.50
2018-02-21T22:35:03.487Z,70.60
2018-02-21T22:37:31.906Z,69.40
2018-02-21T22:40:00.326Z,70.60
2018-02-21T22:42:28.734Z,70.20
2018-02-21T22:44:57.147Z,69.70
2018-02-21T22:47:26.312Z,70.80
2018-02-21T22:49:54.726Z,70.80
2018-02-21T22:52:23.908Z,69.60
2018-02-21T22:54:52.322Z,69.60
2018-02-21T22:57:20.764Z,69.80
2018-02-21T22:59:49.158Z,69.20
2018-02-21T23:02:18.332Z,69.80
2018-02-21T23:04:46.409Z,69.70
2018-02-21T23:07:14.807Z,69.20
2018-02-21T23:09:43.994Z,68.70
2018-02-21T23:12:14.175Z,68.80
2018-02-21T23:14:43.507Z,68.60
2018-02-21T23:17:12.690Z,69.90
2018-02-21T23:19:42.070Z,69.90
2018-02-21T23:22:10.537Z,70.00
2018-02-21T23:24:38.939Z,70.00
2018-02-21T23:27:07.365Z,70.70
2018-02-21T23:29:35.769Z,70.50
2018-02-21T23:32:04.210Z,71.00
2018-02-21T23:34:32.671Z,69.80
2018-02-21T23:37:01.229Z,70.60
2018-02-21T23:39:29.649Z,70.20
2018-02-21T23:41:58.821Z,69.60
2018-02-21T23:44:27.219Z,69.60
2018-02-21T23:46:56.387Z,70.20
2018-02-21T23:49:24.810Z,69.40
2018-02-21T23:51:53.215Z,69.90
2018-02-21T23:54:21.625Z,69.10
2018-02-21T23:56:50.032Z,68.50
2018-02-21T23:59:18.420Z,69.00
